Time;durP1;ratioP1;P1;durP2;ratioP2;P2;SDS_P1;SDS_P2;PMS_P1;PMS_P2;Temp;Humidity;BMP_temperature;BMP_pressure;BME280_temperature;BME280_humidity;BME280_pressure;Samples;Min_cycle;Max_cycle;Signal;HPM_P1;HPM_P2
2022/10/01 00:00:59;;;;;;;10.90;8.90;;;10.40;99.90;;;;;;5070945;28;20047;-45
2022/10/01 00:03:26;;;;;;;10.70;7.75;;;10.50;99.90;;;;;;5070213;28;20040;-46
2022/10/01 00:06:02;;;;;;;11.77;8.63;;;10.50;99.90;;;;;;5070151;28;20047;-44
2022/10/01 00:08:29;;;;;;;12.00;8.90;;;10.50;99.90;;;;;;5069461;28;20033;-43
2022/10/01 00:10:55;;;;;;;11.20;8.88;;;10.90;99.90;;;;;;5071281;28;20032;-44
2022/10/01 00:13:21;;;;;;;12.18;10.18;;;10.70;99.90;;;;;;5070962;28;20055;-44
2022/10/01 00:15:47;;;;;;;10.77;9.50;;;11.20;99.90;;;;;;5068787;28;20036;-44
2022/10/01 00:18:13;;;;;;;13.13;10.48;;;10.30;99.90;;;;;;5069125;28;20035;-46
2022/10/01 00:20:42;;;;;;;11.73;10.50;;;10.40;99.90;;;;;;5070771;28;20037;-44
2022/10/01 00:23:09;;;;;;;14.45;10.98;;;11.90;99.90;;;;;;5070041;28;20339;-45
2022/10/01 00:25:35;;;;;;;13.18;10.68;;;10.40;99.90;;;;;;5067260;28;20036;-46
2022/10/01 00:28:00;;;;;;;15.45;11.20;;;10.50;99.90;;;;;;5070030;28;20048;-44
2022/10/01 00:30:26;;;;;;;14.57;11.18;;;10.80;99.90;;;;;;5069879;28;20058;-45
2022/10/01 00:32:53;;;;;;;13.68;10.70;;;10.40;99.90;;;;;;5068022;28;20046;-44
2022/10/01 00:35:21;;;;;;;16.05;12.80;;;10.30;99.90;;;;;;5069384;28;20132;-44
2022/10/01 00:37:51;;;;;;;15.55;11.38;;;11.90;99.90;;;;;;5070593;28;20522;-44
2022/10/01 00:40:18;;;;;;;14.88;11.75;;;11.10;99.90;;;;;;5071748;28;20032;-47
2022/10/01 00:42:44;;;;;;;14.88;11.77;;;10.90;99.90;;;;;;5070340;28;20097;-44
2022/10/01 00:45:12;;;;;;;15.52;10.73;;;10.60;99.90;;;;;;5069772;28;20044;-44
2022/10/01 00:47:43;;;;;;;14.30;12.48;;;10.30;99.90;;;;;;5067864;28;20056;-47
2022/10/01 00:50:15;;;;;;;20.45;13.13;;;11.50;99.90;;;;;;5070070;28;20500;-48
2022/10/01 00:52:44;;;;;;;16.60;12.70;;;10.30;99.90;;;;;;5070289;28;20108;-44
2022/10/01 00:55:14;;;;;;;20.42;12.80;;;11.70;99.90;;;;;;5069927;28;20042;-47
2022/10/01 00:57:42;;;;;;;15.55;11.65;;;10.90;99.90;;;;;;5068356;28;20085;-44
2022/10/01 01:00:10;;;;;;;16.85;12.30;;;12.20;99.90;;;;;;5070085;28;20044;-47
2022/10/01 01:02:36;;;;;;;14.32;12.60;;;10.30;99.90;;;;;;5069483;28;20081;-44
2022/10/01 01:05:03;;;;;;;14.45;12.50;;;10.30;99.90;;;;;;5069354;28;20431;-45
2022/10/01 01:07:31;;;;;;;13.00;11.60;;;10.50;99.90;;;;;;5069208;28;20779;-46
2022/10/01 01:09:59;;;;;;;17.60;12.35;;;10.30;99.90;;;;;;5069929;28;20129;-44
2022/10/01 01:12:47;;;;;;;17.92;13.45;;;10.90;99.90;;;;;;5070677;28;20032;-45
2022/10/01 01:15:32;;;;;;;14.40;12.18;;;10.30;99.90;;;;;;5070457;28;20178;-44
2022/10/01 01:18:21;;;;;;;17.25;13.05;;;11.70;99.90;;;;;;5069063;28;20595;-48
2022/10/01 01:21:24;;;;;;;16.08;12.55;;;10.20;99.90;;;;;;5069182;28;20036;-45
2022/10/01 01:24:02;;;;;;;18.88;12.32;;;10.20;99.90;;;;;;5063146;28;20052;-44
2022/10/01 01:26:29;;;;;;;19.10;13.90;;;10.20;99.90;;;;;;5066313;28;20051;-45
2022/10/01 01:29:05;;;;;;;13.95;12.02;;;11.00;99.90;;;;;;5067384;28;20884;-44
2022/10/01 01:31:36;;;;;;;14.93;11.68;;;10.30;99.90;;;;;;5069136;28;20062;-45
2022/10/01 01:34:07;;;;;;;17.33;13.05;;;10.80;99.90;;;;;;5069818;28;20047;-44
2022/10/01 01:36:36;;;;;;;15.38;12.70;;;10.30;99.90;;;;;;5069566;28;20044;-47
2022/10/01 01:39:06;;;;;;;16.88;12.30;;;10.30;99.90;;;;;;5069686;28;20063;-49
2022/10/01 01:41:36;;;;;;;16.77;13.13;;;10.30;99.90;;;;;;5073119;28;20065;-48
2022/10/01 01:44:07;;;;;;;15.55;13.15;;;10.30;99.90;;;;;;5072131;28;20036;-50
2022/10/01 01:46:37;;;;;;;19.05;12.48;;;10.60;99.90;;;;;;5071918;28;20151;-46
2022/10/01 01:49:04;;;;;;;14.38;12.05;;;10.20;99.90;;;;;;5071384;28;20481;-46
2022/10/01 01:51:51;;;;;;;14.50;11.50;;;10.20;99.90;;;;;;5071676;28;20752;-44
2022/10/01 01:54:18;;;;;;;12.00;9.88;;;10.20;99.90;;;;;;5069917;28;20048;-45
2022/10/01 01:56:45;;;;;;;12.98;10.65;;;10.30;99.90;;;;;;5072049;28;20800;-49
2022/10/01 01:59:12;;;;;;;14.00;10.15;;;8.80;99.90;;;;;;5072974;28;20048;-45
2022/10/01 02:01:44;;;;;;;13.60;10.35;;;10.30;99.90;;;;;;5071563;28;20565;-47
2022/10/01 02:04:34;;;;;;;11.88;9.63;;;10.30;99.90;;;;;;5071888;28;20047;-45
2022/10/01 02:07:17;;;;;;;12.65;10.00;;;11.60;99.90;;;;;;5071308;28;20032;-44
2022/10/01 02:09:46;;;;;;;11.98;9.52;;;10.40;99.90;;;;;;5071589;28;20040;-44
2022/10/01 02:12:18;;;;;;;13.68;10.10;;;10.30;99.90;;;;;;5073399;28;20094;-46
2022/10/01 02:14:50;;;;;;;11.15;9.40;;;10.30;99.90;;;;;;5073059;28;20101;-45
2022/10/01 02:17:31;;;;;;;10.68;8.27;;;10.40;99.90;;;;;;5072276;28;20454;-45
2022/10/01 02:20:09;;;;;;;10.68;8.40;;;10.40;99.90;;;;;;5071037;28;20514;-46
2022/10/01 02:22:46;;;;;;;12.00;8.50;;;10.30;99.90;;;;;;5071950;28;20521;-45
2022/10/01 02:25:13;;;;;;;11.82;8.93;;;10.40;99.90;;;;;;5072358;28;20036;-44
2022/10/01 02:27:49;;;;;;;10.93;8.25;;;11.70;99.90;;;;;;5071863;28;20097;-44
2022/10/01 02:30:16;;;;;;;10.13;8.25;;;10.30;99.90;;;;;;5072678;28;20040;-45
2022/10/01 02:32:45;;;;;;;10.98;7.53;;;11.00;99.90;;;;;;5071071;28;20576;-43
2022/10/01 02:35:15;;;;;;;8.68;7.35;;;10.40;99.90;;;;;;5069004;28;20052;-45
2022/10/01 02:37:43;;;;;;;8.70;7.32;;;10.30;99.90;;;;;;5069697;28;21262;-44
2022/10/01 02:40:14;;;;;;;8.30;7.05;;;10.40;99.90;;;;;;5069913;28;21180;-48
2022/10/01 02:42:45;;;;;;;9.60;7.55;;;10.40;99.90;;;;;;5071818;28;20098;-46
2022/10/01 02:45:14;;;;;;;8.50;6.90;;;12.30;99.90;;;;;;5070122;28;20056;-44
2022/10/01 02:47:43;;;;;;;8.88;6.95;;;10.40;99.90;;;;;;5069638;28;20091;-50
2022/10/01 02:50:11;;;;;;;7.95;6.97;;;10.60;99.90;;;;;;5071887;28;20059;-44
2022/10/01 02:52:37;;;;;;;11.02;7.35;;;12.30;99.90;;;;;;5070325;28;20093;-48
2022/10/01 02:55:16;;;;;;;10.07;7.18;;;10.30;99.90;;;;;;5071133;28;20044;-47
2022/10/01 02:57:42;;;;;;;7.85;6.57;;;10.50;99.90;;;;;;5071936;28;20203;-44
2022/10/01 03:00:11;;;;;;;8.20;6.30;;;11.60;99.90;;;;;;5070690;28;20043;-45
2022/10/01 03:02:37;;;;;;;7.72;6.82;;;10.50;99.90;;;;;;5069819;28;20039;-45
2022/10/01 03:05:03;;;;;;;9.77;6.60;;;10.50;99.90;;;;;;5068985;28;20041;-44
2022/10/01 03:07:33;;;;;;;10.85;7.82;;;10.50;99.90;;;;;;5071355;28;20165;-45
2022/10/01 03:09:59;;;;;;;8.30;7.03;;;12.50;99.90;;;;;;5071392;28;20032;-46
2022/10/01 03:12:25;;;;;;;9.73;6.63;;;10.50;99.90;;;;;;5070991;28;20032;-48
2022/10/01 03:14:52;;;;;;;7.50;5.28;;;12.20;99.90;;;;;;5069279;28;20044;-45
2022/10/01 03:17:18;;;;;;;7.28;5.20;;;10.60;99.90;;;;;;5069569;28;21123;-45
2022/10/01 03:19:44;;;;;;;6.93;5.65;;;10.70;99.90;;;;;;5070290;28;20066;-45
2022/10/01 03:22:12;;;;;;;6.88;5.40;;;10.70;99.90;;;;;;5071233;28;20051;-48
2022/10/01 03:24:38;;;;;;;6.82;5.03;;;10.70;99.90;;;;;;5071984;28;20048;-46
2022/10/01 03:27:04;;;;;;;7.18;4.68;;;10.70;99.90;;;;;;5069967;28;20770;-45
2022/10/01 03:29:30;;;;;;;6.13;4.22;;;11.40;99.90;;;;;;5072244;28;20062;-47
2022/10/01 03:31:56;;;;;;;6.93;4.28;;;10.60;99.90;;;;;;5068580;28;20044;-44
2022/10/01 03:34:22;;;;;;;6.63;4.30;;;10.80;99.90;;;;;;5067879;28;20031;-45
2022/10/01 03:36:48;;;;;;;5.30;3.78;;;12.80;99.90;;;;;;5068485;28;20036;-44
2022/10/01 03:39:14;;;;;;;5.45;3.38;;;11.20;99.90;;;;;;5069452;28;20044;-45
2022/10/01 03:41:40;;;;;;;5.30;3.30;;;10.80;99.90;;;;;;5071521;28;20039;-45
2022/10/01 03:44:06;;;;;;;6.03;2.97;;;11.10;99.90;;;;;;5068273;28;20042;-47
2022/10/01 03:46:32;;;;;;;4.18;2.75;;;10.90;99.90;;;;;;5067119;28;20527;-44
2022/10/01 03:48:59;;;;;;;5.13;2.70;;;11.60;99.90;;;;;;5066233;28;20151;-46
2022/10/01 03:51:26;;;;;;;5.30;3.00;;;11.30;99.90;;;;;;5068421;28;20068;-47
2022/10/01 03:53:52;;;;;;;4.38;2.90;;;11.50;99.90;;;;;;5104579;27;20279;-47
2022/10/01 03:56:18;;;;;;;3.83;2.33;;;10.90;99.90;;;;;;5068644;28;20047;-44
2022/10/01 03:58:44;;;;;;;5.25;3.00;;;11.10;99.90;;;;;;5069483;28;20040;-44
2022/10/01 04:01:10;;;;;;;3.85;2.30;;;10.90;99.90;;;;;;5070583;28;20036;-44
2022/10/01 04:03:35;;;;;;;4.38;2.40;;;11.40;99.90;;;;;;5070176;28;20042;-45
2022/10/01 04:06:01;;;;;;;4.32;2.33;;;11.00;99.90;;;;;;5069945;28;20044;-48
2022/10/01 04:08:27;;;;;;;5.28;2.50;;;10.90;99.90;;;;;;5070301;28;20131;-46
2022/10/01 04:10:53;;;;;;;3.75;2.10;;;11.00;99.90;;;;;;5070261;28;20074;-45
2022/10/01 04:13:19;;;;;;;4.55;2.28;;;12.50;99.90;;;;;;5069247;28;20131;-47
2022/10/01 04:15:45;;;;;;;3.50;2.30;;;11.10;99.90;;;;;;5069504;28;20036;-44
2022/10/01 04:18:11;;;;;;;4.10;2.22;;;11.10;99.90;;;;;;5069374;28;20094;-44
2022/10/01 04:20:37;;;;;;;5.60;2.50;;;11.00;99.90;;;;;;5070496;28;20040;-47
2022/10/01 04:23:05;;;;;;;3.78;2.40;;;10.90;99.90;;;;;;5068787;28;20066;-47
2022/10/01 04:25:31;;;;;;;5.22;2.65;;;11.90;99.90;;;;;;5068588;28;20614;-46
2022/10/01 04:27:59;;;;;;;4.68;2.80;;;11.20;99.90;;;;;;5068981;28;20131;-46
2022/10/01 04:30:27;;;;;;;4.03;2.42;;;11.00;99.90;;;;;;5070690;28;20073;-45
2022/10/01 04:32:53;;;;;;;4.60;2.72;;;12.70;99.90;;;;;;5070303;28;20040;-48
2022/10/01 04:35:19;;;;;;;3.85;2.20;;;11.00;99.90;;;;;;5069351;28;20408;-46
2022/10/01 04:37:44;;;;;;;3.90;2.28;;;12.00;99.90;;;;;;5068506;28;20148;-44
2022/10/01 04:40:10;;;;;;;4.00;2.22;;;11.10;99.90;;;;;;5068571;28;20105;-45
2022/10/01 04:42:41;;;;;;;4.28;2.40;;;11.20;99.90;;;;;;5070671;28;20089;-46
2022/10/01 04:45:09;;;;;;;4.32;2.70;;;11.80;99.90;;;;;;5070322;28;20134;-45
2022/10/01 04:47:34;;;;;;;7.28;2.83;;;11.10;99.90;;;;;;5068004;28;20040;-45
2022/10/01 04:50:00;;;;;;;4.45;3.22;;;11.30;99.90;;;;;;5069743;28;20774;-46
2022/10/01 04:52:26;;;;;;;5.07;3.25;;;11.30;99.90;;;;;;5070483;28;20052;-45
2022/10/01 04:54:51;;;;;;;4.10;2.85;;;11.20;99.90;;;;;;5069685;28;20496;-44
2022/10/01 04:57:21;;;;;;;5.53;2.92;;;11.80;99.90;;;;;;5068444;28;20568;-46
2022/10/01 04:59:47;;;;;;;4.68;2.95;;;11.30;99.90;;;;;;5068685;28;20158;-45
2022/10/01 05:02:13;;;;;;;5.32;2.95;;;11.70;99.90;;;;;;5069761;28;20032;-46
2022/10/01 05:04:39;;;;;;;4.22;2.65;;;11.30;99.90;;;;;;5070414;28;20044;-43
2022/10/01 05:07:05;;;;;;;4.40;3.25;;;11.30;99.90;;;;;;5070415;28;20444;-48
2022/10/01 05:09:31;;;;;;;4.93;3.25;;;11.30;99.90;;;;;;5068745;28;20500;-44
2022/10/01 05:11:57;;;;;;;5.25;3.15;;;11.50;99.90;;;;;;5070774;28;20043;-44
2022/10/01 05:14:23;;;;;;;5.53;4.03;;;11.20;99.90;;;;;;5073341;28;21156;-48
2022/10/01 05:16:49;;;;;;;5.43;3.70;;;11.30;99.90;;;;;;5074474;28;20066;-46
2022/10/01 05:19:15;;;;;;;5.95;3.67;;;11.40;99.90;;;;;;5072682;28;20524;-44
2022/10/01 05:21:42;;;;;;;6.05;4.40;;;11.30;99.90;;;;;;5072240;28;20043;-43
2022/10/01 05:24:08;;;;;;;4.70;3.47;;;13.50;99.90;;;;;;5070809;28;20353;-43
2022/10/01 05:26:36;;;;;;;6.22;3.13;;;11.20;99.90;;;;;;5074027;28;20500;-47
2022/10/01 05:29:02;;;;;;;6.50;4.30;;;11.40;99.90;;;;;;5072113;28;20135;-44
2022/10/01 05:31:28;;;;;;;4.88;3.83;;;11.30;99.90;;;;;;5071532;28;20036;-45
2022/10/01 05:33:53;;;;;;;8.10;4.55;;;11.80;99.90;;;;;;5072340;28;20048;-44
2022/10/01 05:36:19;;;;;;;6.18;4.45;;;11.50;99.90;;;;;;5073702;28;20036;-49
2022/10/01 05:38:47;;;;;;;7.30;4.80;;;11.50;99.90;;;;;;5072702;28;20029;-43
2022/10/01 05:41:13;;;;;;;8.27;5.13;;;11.50;99.90;;;;;;5072142;28;20047;-46
2022/10/01 05:43:38;;;;;;;6.93;4.97;;;11.50;99.90;;;;;;5073283;28;20039;-44
2022/10/01 05:46:04;;;;;;;8.60;5.60;;;11.60;99.90;;;;;;5072568;28;20054;-47
2022/10/01 05:48:35;;;;;;;9.65;4.63;;;11.40;99.90;;;;;;5071952;28;20142;-44
2022/10/01 05:51:05;;;;;;;7.72;5.72;;;11.90;99.90;;;;;;5070418;28;20044;-46
2022/10/01 05:53:31;;;;;;;11.10;5.93;;;12.50;99.90;;;;;;5071517;28;20218;-48
2022/10/01 05:56:01;;;;;;;11.43;6.78;;;12.90;99.90;;;;;;5070992;28;20036;-47
2022/10/01 05:58:26;;;;;;;11.10;6.55;;;11.60;99.90;;;;;;5070382;28;20647;-45
2022/10/01 06:00:54;;;;;;;8.80;5.03;;;11.60;99.90;;;;;;5073267;28;20032;-47
2022/10/01 06:03:20;;;;;;;9.60;7.13;;;12.40;99.90;;;;;;5071001;28;20062;-44
2022/10/01 06:05:45;;;;;;;8.45;5.57;;;11.60;99.90;;;;;;5070369;28;20328;-44
2022/10/01 06:08:12;;;;;;;11.40;8.25;;;11.40;99.90;;;;;;5070688;28;20043;-45
2022/10/01 06:10:38;;;;;;;10.80;6.20;;;11.50;99.90;;;;;;5067773;28;20044;-46
2022/10/01 06:13:04;;;;;;;14.70;7.25;;;11.60;99.90;;;;;;5071370;28;20113;-46
2022/10/01 06:15:33;;;;;;;11.68;8.02;;;11.80;99.90;;;;;;5070484;28;20028;-45
2022/10/01 06:18:04;;;;;;;16.42;8.05;;;11.90;99.90;;;;;;5069239;28;21059;-48
2022/10/01 06:20:29;;;;;;;13.55;7.80;;;11.90;99.90;;;;;;5071655;28;20044;-45
2022/10/01 06:22:56;;;;;;;10.13;7.05;;;11.90;99.90;;;;;;5069174;28;20036;-45
2022/10/01 06:25:23;;;;;;;10.27;5.68;;;12.10;99.90;;;;;;5071807;28;20325;-47
2022/10/01 06:27:55;;;;;;;12.52;7.32;;;12.00;99.90;;;;;;5070600;28;20032;-45
2022/10/01 06:30:21;;;;;;;8.38;4.93;;;12.10;99.90;;;;;;5069167;28;20500;-45
2022/10/01 06:32:47;;;;;;;14.65;7.53;;;12.30;99.90;;;;;;5068576;28;20132;-45
2022/10/01 06:35:13;;;;;;;12.52;6.95;;;12.90;99.90;;;;;;5068991;28;20069;-45
2022/10/01 06:37:39;;;;;;;16.02;7.57;;;12.20;99.90;;;;;;5068884;28;20123;-46
2022/10/01 06:40:06;;;;;;;12.85;6.80;;;12.20;99.90;;;;;;5068551;28;20048;-44
2022/10/01 06:42:31;;;;;;;13.80;5.65;;;12.40;99.90;;;;;;5070170;28;20036;-47
2022/10/01 06:44:57;;;;;;;10.98;5.10;;;12.40;99.90;;;;;;5071776;28;20066;-45
2022/10/01 06:47:23;;;;;;;10.23;5.68;;;12.50;99.90;;;;;;5071568;28;20036;-44
2022/10/01 06:49:48;;;;;;;10.30;4.82;;;12.50;99.90;;;;;;5070853;28;20048;-44
2022/10/01 06:55:00;;;;;;;10.60;4.55;;;13.90;99.90;;;;;;5070766;28;20051;-44
2022/10/01 06:57:26;;;;;;;11.35;4.88;;;14.30;99.90;;;;;;5070542;28;20048;-46
2022/10/01 06:59:52;;;;;;;12.32;4.90;;;12.60;99.90;;;;;;5069382;28;20040;-44
2022/10/01 07:02:26;;;;;;;9.32;3.75;;;13.00;99.90;;;;;;5070009;28;20043;-44
2022/10/01 07:04:52;;;;;;;12.73;4.10;;;13.00;99.90;;;;;;5070629;28;20119;-47
2022/10/01 07:07:18;;;;;;;9.38;2.90;;;13.00;99.90;;;;;;5070091;28;20479;-45
2022/10/01 07:09:44;;;;;;;12.90;3.72;;;13.60;99.90;;;;;;5070713;28;20161;-44
2022/10/01 07:12:09;;;;;;;14.30;3.65;;;13.10;99.90;;;;;;5072173;28;20040;-47
2022/10/01 07:14:35;;;;;;;11.80;4.43;;;12.90;99.90;;;;;;5071753;28;20047;-45
2022/10/01 07:17:01;;;;;;;11.07;3.63;;;13.00;99.90;;;;;;5072090;28;20044;-44
2022/10/01 07:19:26;;;;;;;12.98;3.90;;;13.20;99.90;;;;;;5071851;28;20071;-43
2022/10/01 07:21:52;;;;;;;14.40;3.20;;;12.90;99.90;;;;;;5070823;28;20071;-45
2022/10/01 07:24:18;;;;;;;9.88;2.95;;;12.80;99.90;;;;;;5070822;28;20418;-46
2022/10/01 07:26:43;;;;;;;9.05;2.78;;;12.60;99.90;;;;;;5069910;28;20036;-49
2022/10/01 07:29:09;;;;;;;10.30;2.63;;;12.70;99.90;;;;;;5071315;28;20041;-44
2022/10/01 07:31:35;;;;;;;10.70;2.60;;;12.80;99.90;;;;;;5070737;28;20050;-43
2022/10/01 07:34:00;;;;;;;14.52;2.40;;;13.20;99.90;;;;;;5071786;28;20047;-45
2022/10/01 07:36:26;;;;;;;12.95;2.03;;;15.60;99.90;;;;;;5070288;28;20040;-44
2022/10/01 07:38:52;;;;;;;9.65;1.98;;;14.40;99.90;;;;;;5070708;28;20036;-45
2022/10/01 07:41:18;;;;;;;7.75;1.50;;;15.40;99.90;;;;;;5070299;28;20039;-44
2022/10/01 07:43:45;;;;;;;11.85;2.08;;;15.80;99.90;;;;;;5072503;28;20043;-47
2022/10/01 07:46:11;;;;;;;9.50;2.00;;;16.10;99.90;;;;;;5070164;28;20036;-44
2022/10/01 07:48:37;;;;;;;12.70;2.15;;;16.30;96.40;;;;;;5068064;28;20044;-45
2022/10/01 07:51:02;;;;;;;11.85;1.83;;;15.80;94.60;;;;;;5068178;28;20405;-46
2022/10/01 07:53:28;;;;;;;11.77;1.73;;;15.50;99.90;;;;;;5070768;28;20048;-44
2022/10/01 07:55:54;;;;;;;15.20;2.20;;;15.20;99.90;;;;;;5069529;28;20054;-45
2022/10/01 07:58:22;;;;;;;10.60;1.70;;;15.00;99.90;;;;;;5070201;28;20539;-47
2022/10/01 08:00:48;;;;;;;9.95;1.90;;;14.70;99.90;;;;;;5069715;28;20052;-47
2022/10/01 08:03:14;;;;;;;9.68;1.52;;;14.90;99.90;;;;;;5071137;28;20052;-45
2022/10/01 08:05:42;;;;;;;6.70;1.75;;;14.50;99.90;;;;;;5068405;28;20101;-48
2022/10/01 08:08:08;;;;;;;11.57;2.22;;;14.40;99.90;;;;;;5069155;28;20531;-47
2022/10/01 08:10:36;;;;;;;9.93;2.00;;;14.60;99.90;;;;;;5071203;28;20058;-46
2022/10/01 08:13:13;;;;;;;8.85;1.42;;;15.40;99.90;;;;;;5070807;28;20046;-47
2022/10/01 08:15:40;;;;;;;10.32;1.80;;;14.50;99.90;;;;;;5069213;28;20390;-46
2022/10/01 08:18:05;;;;;;;10.95;2.00;;;14.50;99.90;;;;;;5069611;28;20250;-46
2022/10/01 08:20:33;;;;;;;13.77;2.08;;;14.50;99.90;;;;;;5067002;28;20470;-45
2022/10/01 08:23:03;;;;;;;14.50;1.90;;;14.50;99.90;;;;;;5068472;28;20133;-45
2022/10/01 08:25:29;;;;;;;11.52;1.50;;;14.40;99.90;;;;;;5069663;28;20039;-46
2022/10/01 08:27:55;;;;;;;10.40;1.88;;;14.40;99.90;;;;;;5070315;28;20079;-44
2022/10/01 08:30:21;;;;;;;9.00;2.20;;;14.70;99.90;;;;;;5070984;28;20445;-47
2022/10/01 08:32:47;;;;;;;11.88;2.08;;;14.80;99.90;;;;;;5067292;28;20583;-46
2022/10/01 08:35:12;;;;;;;12.65;1.90;;;15.00;99.90;;;;;;5068441;28;20048;-45
2022/10/01 08:37:38;;;;;;;12.68;2.05;;;15.10;99.90;;;;;;5069334;28;20043;-47
2022/10/01 08:40:04;;;;;;;12.25;1.90;;;15.00;99.90;;;;;;5067359;28;20075;-48
2022/10/01 08:42:46;;;;;;;11.80;2.20;;;15.30;99.90;;;;;;5069611;28;20040;-48
2022/10/01 08:45:41;;;;;;;14.32;2.95;;;15.10;99.90;;;;;;5071389;28;20741;-46
2022/10/01 08:48:29;;;;;;;8.18;1.80;;;15.10;99.90;;;;;;5068595;28;20040;-45
2022/10/01 08:51:14;;;;;;;13.30;2.72;;;15.30;99.90;;;;;;5074852;28;20048;-49
2022/10/01 08:53:47;;;;;;;12.40;2.25;;;15.40;99.90;;;;;;5104791;27;20069;-45
2022/10/01 08:56:39;;;;;;;18.10;2.58;;;15.20;99.90;;;;;;5072032;28;20389;-45
2022/10/01 08:59:22;;;;;;;14.25;2.38;;;15.10;99.90;;;;;;5074024;28;20097;-48
2022/10/01 09:01:48;;;;;;;16.98;2.60;;;15.00;99.90;;;;;;5070862;28;20043;-45
2022/10/01 09:04:14;;;;;;;15.70;2.63;;;15.30;99.90;;;;;;5071776;28;20086;-47
2022/10/01 09:06:40;;;;;;;11.57;2.20;;;15.20;99.90;;;;;;5073260;28;20458;-47
2022/10/01 09:09:30;;;;;;;10.00;1.95;;;15.90;99.90;;;;;;5057072;28;20134;-44
2022/10/01 09:12:15;;;;;;;13.77;2.67;;;15.20;99.90;;;;;;5073477;28;20035;-46
2022/10/01 09:15:11;;;;;;;13.18;2.60;;;13.50;99.90;;;;;;5072394;28;20036;-49
2022/10/01 09:18:09;;;;;;;19.05;2.95;;;15.50;99.90;;;;;;5072785;28;20047;-43
2022/10/01 09:20:41;;;;;;;13.98;2.65;;;15.40;92.40;;;;;;5070442;28;20044;-45
2022/10/01 09:23:22;;;;;;;14.35;2.50;;;15.30;72.40;;;;;;5072476;28;20998;-45
2022/10/01 09:25:49;;;;;;;24.75;5.45;;;15.20;90.00;;;;;;5072466;28;20044;-48
2022/10/01 09:28:20;;;;;;;29.42;6.93;;;15.10;89.10;;;;;;5073389;28;20039;-44
2022/10/01 09:31:17;;;;;;;20.23;3.75;;;14.90;80.80;;;;;;5073063;28;20032;-43
2022/10/01 09:34:00;;;;;;;14.55;2.63;;;15.10;85.60;;;;;;5055917;28;20043;-46
2022/10/01 09:37:02;;;;;;;15.15;2.55;;;15.00;86.60;;;;;;5070994;28;20036;-47
2022/10/01 09:39:39;;;;;;;29.33;6.80;;;15.00;94.20;;;;;;5071570;28;20470;-45
2022/10/01 09:42:05;;;;;;;23.60;5.25;;;15.20;95.90;;;;;;5072294;28;20140;-45
2022/10/01 09:44:32;;;;;;;17.83;3.80;;;15.00;91.90;;;;;;5074172;28;20047;-45
2022/10/01 09:46:58;;;;;;;18.92;2.90;;;14.80;90.90;;;;;;5071789;28;20131;-46
2022/10/01 09:49:38;;;;;;;22.17;4.85;;;14.90;93.00;;;;;;5070767;28;20056;-46
2022/10/01 09:52:18;;;;;;;22.10;4.97;;;16.40;96.10;;;;;;5071897;28;20044;-46
2022/10/01 09:55:05;;;;;;;24.63;5.95;;;14.40;97.80;;;;;;5072182;28;20047;-47
2022/10/01 09:57:39;;;;;;;17.00;3.20;;;14.20;99.90;;;;;;5072560;28;20052;-46
2022/10/01 10:00:09;;;;;;;42.90;7.72;;;16.00;99.90;;;;;;5073238;28;20439;-45
2022/10/01 10:02:49;;;;;;;24.58;4.82;;;14.00;99.90;;;;;;5072098;28;20033;-47
2022/10/01 10:05:16;;;;;;;21.58;4.70;;;14.70;99.90;;;;;;5070429;28;20649;-43
2022/10/01 10:08:06;;;;;;;31.38;6.25;;;13.60;99.90;;;;;;5072292;28;20126;-46
2022/10/01 10:10:35;;;;;;;12.38;2.95;;;13.50;99.90;;;;;;5064198;28;20052;-45
2022/10/01 10:13:23;;;;;;;9.88;1.73;;;13.10;99.90;;;;;;5072063;28;20398;-44
2022/10/01 10:15:52;;;;;;;18.10;3.65;;;13.10;99.90;;;;;;5071547;28;20032;-44
2022/10/01 10:18:27;;;;;;;13.68;2.15;;;12.90;99.90;;;;;;5069895;28;20064;-44
2022/10/01 10:20:53;;;;;;;7.60;1.70;;;12.90;99.90;;;;;;5072286;28;20046;-44
2022/10/01 10:23:22;;;;;;;14.02;2.95;;;12.70;99.90;;;;;;5072442;28;20041;-43
2022/10/01 10:26:01;;;;;;;14.68;2.83;;;14.50;99.90;;;;;;5070437;28;20856;-44
2022/10/01 10:28:39;;;;;;;17.20;2.85;;;13.00;99.90;;;;;;5072255;28;20061;-44
2022/10/01 10:31:15;;;;;;;12.13;2.13;;;13.50;99.90;;;;;;5071909;28;20133;-45
2022/10/01 10:33:54;;;;;;;12.50;2.25;;;14.00;99.90;;;;;;5071160;28;22043;-44
2022/10/01 10:36:25;;;;;;;9.65;1.60;;;14.40;99.90;;;;;;5071044;28;20055;-43
2022/10/01 10:38:52;;;;;;;17.70;3.30;;;14.70;99.90;;;;;;5071432;28;20036;-48
2022/10/01 10:41:25;;;;;;;114.38;25.00;;;14.80;99.90;;;;;;5072003;28;20055;-47
2022/10/01 10:43:57;;;;;;;18.13;2.92;;;15.20;99.90;;;;;;5072166;28;20391;-48
2022/10/01 10:46:28;;;;;;;14.82;3.00;;;15.50;99.90;;;;;;5071417;28;20172;-44
2022/10/01 10:49:07;;;;;;;14.75;2.75;;;15.40;99.90;;;;;;5070290;28;20054;-47
2022/10/01 10:51:54;;;;;;;18.58;2.85;;;15.40;99.90;;;;;;5071733;28;20044;-45
2022/10/01 10:54:38;;;;;;;20.50;3.67;;;15.00;99.90;;;;;;5069892;28;20233;-44
2022/10/01 10:57:27;;;;;;;9.63;2.25;;;15.00;99.90;;;;;;5071363;28;20136;-43
2022/10/01 11:00:01;;;;;;;20.75;4.00;;;14.60;99.90;;;;;;5070798;28;20051;-43
2022/10/01 11:02:32;;;;;;;16.63;2.03;;;14.30;99.90;;;;;;5071166;28;20158;-44
2022/10/01 11:05:16;;;;;;;8.32;1.70;;;14.50;99.90;;;;;;5071290;28;20837;-44
2022/10/01 11:07:45;;;;;;;10.88;2.33;;;14.40;99.90;;;;;;5070258;28;20063;-45
2022/10/01 11:10:13;;;;;;;10.18;2.10;;;14.60;99.90;;;;;;5071654;28;20047;-44
2022/10/01 11:13:05;;;;;;;13.48;2.72;;;14.70;99.90;;;;;;5071690;28;20044;-45
2022/10/01 11:15:50;;;;;;;18.60;3.13;;;14.90;99.90;;;;;;5070970;28;20040;-44
2022/10/01 11:18:41;;;;;;;9.48;1.70;;;15.10;99.90;;;;;;5070272;28;20042;-44
2022/10/01 11:21:09;;;;;;;10.35;1.70;;;15.60;99.90;;;;;;5070008;28;20056;-45
2022/10/01 11:24:03;;;;;;;12.63;2.45;;;16.00;99.90;;;;;;5068020;28;20352;-45
2022/10/01 11:27:01;;;;;;;11.50;1.85;;;16.10;99.90;;;;;;5070452;28;20044;-46
2022/10/01 11:29:36;;;;;;;12.88;2.05;;;15.80;97.20;;;;;;5070669;28;20336;-45
2022/10/01 11:32:07;;;;;;;12.45;1.95;;;16.00;98.10;;;;;;5070931;28;20044;-45
2022/10/01 11:34:42;;;;;;;12.98;2.30;;;15.90;97.10;;;;;;5070412;28;20059;-47
2022/10/01 11:37:25;;;;;;;9.57;1.75;;;16.10;96.90;;;;;;5070989;28;20473;-44
2022/10/01 11:39:55;;;;;;;13.27;2.33;;;16.00;92.40;;;;;;5070913;28;20428;-43
2022/10/01 11:42:34;;;;;;;12.60;2.42;;;16.10;91.90;;;;;;5070028;28;20110;-44
2022/10/01 11:45:14;;;;;;;12.23;2.10;;;16.00;90.70;;;;;;5070212;28;20040;-43
2022/10/01 11:47:58;;;;;;;12.63;2.55;;;15.80;83.30;;;;;;5069476;28;20072;-46
2022/10/01 11:50:40;;;;;;;15.48;2.25;;;16.00;91.10;;;;;;5069150;28;20044;-48
2022/10/01 11:53:10;;;;;;;;;;;15.70;73.40;;;;;;5070246;28;20032;-45
2022/10/01 11:58:50;;;;;;;12.85;1.98;;;15.90;90.90;;;;;;5069777;28;20055;-45
2022/10/01 12:01:22;;;;;;;10.68;1.80;;;15.80;80.80;;;;;;5068819;28;20048;-44
2022/10/01 12:03:51;;;;;;;13.35;2.25;;;15.70;81.50;;;;;;5068368;28;20127;-43
2022/10/01 12:06:21;;;;;;;14.77;2.20;;;15.70;82.30;;;;;;5067059;28;20557;-46
2022/10/01 12:08:53;;;;;;;12.88;2.00;;;15.80;87.60;;;;;;5067697;28;20052;-45
2022/10/01 12:11:23;;;;;;;;;;;15.60;83.00;;;;;;5068993;28;20036;-47
2022/10/01 12:14:02;;;;;;;14.25;2.08;;;16.10;72.90;;;;;;5069906;28;20411;-44
2022/10/01 12:16:35;;;;;;;15.63;1.92;;;15.70;82.00;;;;;;5053504;28;20055;-44
2022/10/01 12:19:24;;;;;;;11.43;1.75;;;15.80;74.00;;;;;;5070040;28;20106;-47
2022/10/01 12:22:09;;;;;;;10.00;1.80;;;16.10;77.90;;;;;;5068554;28;20082;-45
2022/10/01 12:24:40;;;;;;;11.02;2.13;;;16.40;74.70;;;;;;5066175;28;20047;-45
2022/10/01 12:27:22;;;;;;;7.03;1.52;;;16.60;70.10;;;;;;5066246;28;20482;-42
2022/10/01 12:30:06;;;;;;;12.15;1.80;;;16.70;50.50;;;;;;5061032;28;20703;-45
2022/10/01 12:33:03;;;;;;;9.30;1.63;;;16.30;15.60;;;;;;5064581;28;20455;-48
2022/10/01 12:35:56;;;;;;;7.60;1.75;;;16.30;32.20;;;;;;5065085;28;20054;-48
2022/10/01 12:38:54;;;;;;;13.00;1.90;;;16.10;15.40;;;;;;5064956;28;20328;-45
2022/10/01 12:41:22;;;;;;;10.63;1.67;;;16.40;21.20;;;;;;5036022;28;20060;-45
2022/10/01 12:44:07;;;;;;;12.85;2.75;;;16.50;26.70;;;;;;5068724;28;20123;-45
2022/10/01 12:46:42;;;;;;;11.73;2.03;;;16.50;15.20;;;;;;5070547;28;20044;-44
2022/10/01 12:49:31;;;;;;;10.70;1.67;;;16.60;23.40;;;;;;5068814;28;20414;-47
2022/10/01 12:52:41;;;;;;;10.32;1.73;;;16.30;1.00;;;;;;5052240;28;20048;-47
2022/10/01 12:55:33;;;;;;;9.75;2.20;;;16.10;2.40;;;;;;5066469;28;20047;-44
2022/10/01 12:58:16;;;;;;;13.10;2.33;;;16.00;21.40;;;;;;5067225;28;20650;-43
2022/10/01 13:01:00;;;;;;;11.32;2.10;;;15.70;17.80;;;;;;5066820;28;20044;-47
2022/10/01 13:03:47;;;;;;;10.57;1.98;;;15.50;26.00;;;;;;5069129;28;20386;-46
2022/10/01 13:06:27;;;;;;;14.00;2.15;;;15.30;33.90;;;;;;5069515;28;20847;-43
2022/10/01 13:09:10;;;;;;;13.02;2.13;;;15.30;50.30;;;;;;5068417;28;20058;-45